Portada
METAR-TAF:

METAR-TAF

Aeroports :

Orsk, Rússia

latitud: 51-04-18N, longitud: 058-35-48E, altitud: 277 m

Observació

L'informe es va fer fa 45 minuts, a les 12:00 UTC
Vent 6 kt del Sud/Sud-Est
Temperatura 8°C
Humitat 46%
Pressió 1033 hPa
Visibilitat 10 km o més
sense núvols per sota de 1500 mi sense presència de cumulonimbus.

METAR: UWOR 301200Z 16003MPS CAVOK 08/M03 Q1033 R25/CLRD65 NOSIG RMK QFE751/1001

Hora: 17:45 (12:45 UTC)

Pronòstic

L'informe es va fer fa 1 hora i 59 minuts, a les 10:46 UTC
Pronòstic vàlid del 30 a les 12 UTC al 30 a les 21 UTC
Vent 12 kt del Sud/Sud-Est amb ràfegues de 25 kt
Visibilitat 10 km o més
Cel ennuvolat a una alçada de 3000 ft
Temporalment
l' 30 a les 12 UTC al 30 a les 21 UTC
Vent 16 kt del Sud amb ràfegues de 27 kt

TAF: UWOR 301046Z 3012/3021 15006G13MPS 9999 BKN030 TX09/3012Z TN04/3021Z TEMPO 3012/3021 17008G14MPS

Observacions i pronòstics meteorològics de més de 4000 aeroports (METAR i TAF).

Les estacions disponibles són els punts grocs i vermells al mapa.

Posi el ratolí al punt desitjat per veure el nom de l'estació.

Feu clic per veure les observacions i els pronòstics meteorològics.

Per canviar el mapa: feu clic els botons verds amb una creu de color negre per apropar; al botó verd amb un guió per allunyar la imatge; o en les fletxes verdes per a mapes adjacents.


METAR-TAF: